Time;durP1;ratioP1;P1;durP2;ratioP2;P2;SDS_P1;SDS_P2;PMS_P1;PMS_P2;Temp;Humidity;BMP_temperature;BMP_pressure;BME280_temperature;BME280_humidity;BME280_pressure;Samples;Min_cycle;Max_cycle;Signal;HPM_P1;HPM_P2
2021/03/04 00:00:58;;;;;;;;;;;13.10;68.20;;;;;;2081073;28;734;-51
2021/03/04 00:02:17;;;;;;;;;;;13.10;68.20;;;;;;2081572;28;1358;-54
2021/03/04 00:03:36;;;;;;;;;;;13.10;68.30;;;;;;2091020;28;1599;-53
2021/03/04 00:04:55;;;;;;;;;;;13.10;68.20;;;;;;2089076;28;688;-52
2021/03/04 00:06:15;;;;;;;;;;;13.10;68.30;;;;;;2089089;28;715;-54
2021/03/04 00:07:34;;;;;;;;;;;13.10;68.20;;;;;;2089396;28;732;-53
2021/03/04 00:08:54;;;;;;;;;;;13.10;68.20;;;;;;2089792;28;703;-55
2021/03/04 00:10:17;;;;;;;;;;;13.10;68.30;;;;;;2089774;28;763;-53
2021/03/04 00:11:36;;;;;;;;;;;13.10;68.40;;;;;;2089551;28;715;-54
2021/03/04 00:12:55;;;;;;;;;;;13.10;68.30;;;;;;2089690;28;1352;-54
2021/03/04 00:14:14;;;;;;;;;;;13.10;68.30;;;;;;2089120;28;746;-58
2021/03/04 00:15:34;;;;;;;;;;;13.10;68.30;;;;;;2088747;28;721;-51
2021/03/04 00:16:53;;;;;;;;;;;13.10;68.40;;;;;;2089420;28;697;-54
2021/03/04 00:18:12;;;;;;;;;;;13.10;68.30;;;;;;2089617;28;918;-53
2021/03/04 00:19:31;;;;;;;;;;;13.10;68.30;;;;;;2082011;28;1906;-53
2021/03/04 00:20:52;;;;;;;;;;;13.10;68.40;;;;;;2094220;28;1156;-54
2021/03/04 00:22:11;;;;;;;;;;;13.00;68.20;;;;;;2089007;28;1367;-54
2021/03/04 00:23:30;;;;;;;;;;;13.00;68.20;;;;;;2089674;28;721;-54
2021/03/04 00:24:49;;;;;;;;;;;13.00;68.20;;;;;;2089298;28;729;-57
2021/03/04 00:26:08;;;;;;;;;;;13.00;69.00;;;;;;2089165;28;721;-52
2021/03/04 00:27:27;;;;;;;;;;;13.00;68.20;;;;;;2082386;28;768;-51
2021/03/04 00:28:46;;;;;;;;;;;13.00;68.80;;;;;;2084268;28;716;-52
2021/03/04 00:30:06;;;;;;;;;;;13.00;68.10;;;;;;2091037;28;750;-52
2021/03/04 00:31:26;;;;;;;;;;;13.00;68.10;;;;;;2091372;28;713;-51
2021/03/04 00:32:45;;;;;;;;;;;13.00;68.10;;;;;;2091270;28;1297;-52
2021/03/04 00:34:04;;;;;;;;;;;13.00;68.10;;;;;;2090868;28;749;-52
2021/03/04 00:35:23;;;;;;;;;;;13.00;68.10;;;;;;2090368;28;737;-51
2021/03/04 00:36:43;;;;;;;;;;;13.00;68.20;;;;;;2090614;28;735;-51
2021/03/04 00:38:02;;;;;;;;;;;13.00;68.20;;;;;;2091186;28;782;-52
2021/03/04 00:39:22;;;;;;;;;;;13.00;68.20;;;;;;2090480;28;712;-52
2021/03/04 00:40:41;;;;;;;;;;;13.00;68.20;;;;;;2091077;28;725;-52
2021/03/04 00:42:00;;;;;;;;;;;13.00;68.20;;;;;;2091379;28;724;-51
2021/03/04 00:43:19;;;;;;;;;;;13.00;68.20;;;;;;2091124;28;693;-50
2021/03/04 00:44:38;;;;;;;;;;;13.00;69.00;;;;;;2091045;28;699;-52
2021/03/04 00:45:57;;;;;;;;;;;13.00;68.20;;;;;;2091181;28;704;-52
2021/03/04 00:47:17;;;;;;;;;;;12.90;68.20;;;;;;2090448;28;725;-52
2021/03/04 00:48:36;;;;;;;;;;;12.90;68.20;;;;;;2091929;28;1044;-51
2021/03/04 00:49:55;;;;;;;;;;;12.90;68.10;;;;;;2095399;28;1003;-52
2021/03/04 00:51:14;;;;;;;;;;;12.90;68.20;;;;;;2090267;28;1371;-51
2021/03/04 00:52:33;;;;;;;;;;;12.90;68.10;;;;;;2098381;28;1280;-52
2021/03/04 00:53:53;;;;;;;;;;;12.90;68.20;;;;;;2090244;28;725;-51
2021/03/04 00:55:12;;;;;;;;;;;12.90;68.10;;;;;;2089991;28;783;-51
2021/03/04 00:56:31;;;;;;;;;;;12.90;68.10;;;;;;2090759;28;717;-51
2021/03/04 00:57:50;;;;;;;;;;;12.90;68.10;;;;;;2090448;28;749;-50
2021/03/04 00:59:10;;;;;;;;;;;12.90;68.10;;;;;;2090832;28;713;-51
2021/03/04 01:00:29;;;;;;;;;;;12.90;68.20;;;;;;2090808;28;715;-51
2021/03/04 01:01:48;;;;;;;;;;;12.90;68.20;;;;;;2089760;28;1849;-51
2021/03/04 01:03:07;;;;;;;;;;;12.90;68.90;;;;;;2087773;28;1597;-50
2021/03/04 01:04:26;;;;;;;;;;;12.90;69.00;;;;;;2090510;28;1118;-51
2021/03/04 01:05:46;;;;;;;;;;;12.90;68.20;;;;;;2090008;28;715;-49
2021/03/04 01:07:05;;;;;;;;;;;12.90;68.30;;;;;;2091002;28;788;-53
2021/03/04 01:08:24;;;;;;;;;;;12.90;68.30;;;;;;2091119;28;697;-52
2021/03/04 01:09:43;;;;;;;;;;;12.90;68.30;;;;;;2090192;28;716;-49
2021/03/04 01:11:03;;;;;;;;;;;12.90;68.40;;;;;;2090839;28;707;-52
2021/03/04 01:12:22;;;;;;;;;;;12.90;68.40;;;;;;2090284;28;1448;-52
2021/03/04 01:13:42;;;;;;;;;;;12.90;68.40;;;;;;2090658;28;934;-52
2021/03/04 01:15:01;;;;;;;;;;;12.90;68.40;;;;;;2090215;28;769;-51
2021/03/04 01:16:20;;;;;;;;;;;12.90;68.40;;;;;;2090587;28;812;-52
2021/03/04 01:17:39;;;;;;;;;;;12.90;68.30;;;;;;2090997;28;709;-49
2021/03/04 01:18:58;;;;;;;;;;;12.90;68.30;;;;;;2090623;28;979;-52
2021/03/04 01:20:18;;;;;;;;;;;12.80;68.20;;;;;;2091788;28;1983;-52
2021/03/04 01:21:37;;;;;;;;;;;12.80;68.90;;;;;;2082902;28;773;-52
2021/03/04 01:22:56;;;;;;;;;;;12.80;68.60;;;;;;2082111;28;1380;-49
2021/03/04 01:24:15;;;;;;;;;;;12.80;68.20;;;;;;2073871;28;1008;-53
2021/03/04 01:25:35;;;;;;;;;;;12.80;68.20;;;;;;2078496;28;958;-51
2021/03/04 01:26:54;;;;;;;;;;;12.80;68.20;;;;;;2082549;28;742;-52
2021/03/04 01:28:13;;;;;;;;;;;12.80;68.30;;;;;;2082529;28;769;-51
2021/03/04 01:29:32;;;;;;;;;;;12.80;68.30;;;;;;2082463;28;744;-52
2021/03/04 01:30:52;;;;;;;;;;;12.80;68.40;;;;;;2081889;28;736;-51
2021/03/04 01:32:11;;;;;;;;;;;12.80;68.60;;;;;;2078992;28;1450;-52
2021/03/04 01:33:30;;;;;;;;;;;12.80;68.60;;;;;;2082234;28;731;-51
2021/03/04 01:34:50;;;;;;;;;;;12.80;68.60;;;;;;2081708;28;738;-52
2021/03/04 01:36:09;;;;;;;;;;;12.80;68.50;;;;;;2078908;28;1065;-52
2021/03/04 01:37:28;;;;;;;;;;;12.80;68.50;;;;;;2081650;28;749;-53
2021/03/04 01:38:48;;;;;;;;;;;12.80;68.50;;;;;;2081717;28;795;-52
2021/03/04 01:40:07;;;;;;;;;;;12.80;69.20;;;;;;2078484;28;1971;-52
2021/03/04 01:41:26;;;;;;;;;;;12.80;68.50;;;;;;2070346;28;799;-52
2021/03/04 01:42:45;;;;;;;;;;;12.80;68.50;;;;;;2079010;28;1356;-54
2021/03/04 01:44:05;;;;;;;;;;;12.80;68.40;;;;;;2082249;28;732;-52
2021/03/04 01:45:24;;;;;;;;;;;12.80;68.40;;;;;;2081157;28;764;-52
2021/03/04 01:46:43;;;;;;;;;;;12.80;68.40;;;;;;2082205;28;721;-51
2021/03/04 01:48:04;;;;;;;;;;;12.80;68.40;;;;;;2075908;28;923;-54
2021/03/04 01:49:23;;;;;;;;;;;12.80;68.40;;;;;;2085877;28;1087;-51
2021/03/04 01:50:42;;;;;;;;;;;12.80;68.50;;;;;;2085331;28;905;-52
2021/03/04 01:52:02;;;;;;;;;;;12.80;68.50;;;;;;2086741;28;718;-53
2021/03/04 01:53:21;;;;;;;;;;;12.70;68.50;;;;;;2094581;28;841;-54
2021/03/04 01:54:40;;;;;;;;;;;12.70;68.50;;;;;;2099051;28;697;-50
2021/03/04 01:55:59;;;;;;;;;;;12.70;68.60;;;;;;2098223;28;736;-50
2021/03/04 01:57:18;;;;;;;;;;;12.70;68.60;;;;;;2095119;28;726;-50
2021/03/04 01:58:37;;;;;;;;;;;12.70;69.50;;;;;;2095198;28;723;-49
2021/03/04 01:59:56;;;;;;;;;;;12.70;68.70;;;;;;2098466;28;1905;-51
2021/03/04 02:01:16;;;;;;;;;;;12.70;68.70;;;;;;2098766;28;1061;-52
2021/03/04 02:02:35;;;;;;;;;;;12.70;68.80;;;;;;2099081;28;1458;-50
2021/03/04 02:03:54;;;;;;;;;;;12.70;68.80;;;;;;2098848;28;723;-51
2021/03/04 02:05:14;;;;;;;;;;;12.70;68.70;;;;;;2098200;28;945;-51
2021/03/04 02:06:43;;;;;;;;;;;12.70;68.60;;;;;;2095199;28;1320;-52
2021/03/04 02:08:05;;;;;;;;;;;12.70;68.60;;;;;;2089854;28;721;-50
2021/03/04 02:09:24;;;;;;;;;;;12.70;68.60;;;;;;2087045;28;713;-51
2021/03/04 02:10:45;;;;;;;;;;;12.70;68.60;;;;;;2095199;28;1024;-50
2021/03/04 02:12:07;;;;;;;;;;;12.70;68.60;;;;;;2081429;28;726;-52
2021/03/04 02:13:36;;;;;;;;;;;12.70;68.90;;;;;;2089794;28;917;-51
2021/03/04 02:14:56;;;;;;;;;;;12.70;69.40;;;;;;2098196;28;702;-50
2021/03/04 02:16:18;;;;;;;;;;;12.70;68.70;;;;;;2089792;28;791;-50
2021/03/04 02:17:38;;;;;;;;;;;12.70;68.60;;;;;;2092315;28;714;-51
2021/03/04 02:18:57;;;;;;;;;;;12.70;68.70;;;;;;2086435;28;1027;-51
2021/03/04 02:20:28;;;;;;;;;;;12.70;68.90;;;;;;2087803;28;1969;-49
2021/03/04 02:21:54;;;;;;;;;;;12.70;68.80;;;;;;2082291;28;714;-50
2021/03/04 02:23:31;;;;;;;;;;;12.70;69.50;;;;;;2081355;28;740;-50
2021/03/04 02:25:03;;;;;;;;;;;12.70;68.80;;;;;;2088190;28;735;-49
2021/03/04 02:26:40;;;;;;;;;;;12.70;69.00;;;;;;2083001;28;777;-51
2021/03/04 02:27:59;;;;;;;;;;;12.60;68.80;;;;;;2081234;28;739;-51
2021/03/04 02:29:19;;;;;;;;;;;12.70;69.00;;;;;;2088959;28;834;-51
2021/03/04 02:30:38;;;;;;;;;;;12.70;68.90;;;;;;2083260;28;878;-51
2021/03/04 02:31:57;;;;;;;;;;;12.70;68.80;;;;;;2089983;28;773;-51
2021/03/04 02:33:17;;;;;;;;;;;12.60;69.50;;;;;;2088048;28;776;-49
2021/03/04 02:34:42;;;;;;;;;;;12.60;68.70;;;;;;2090301;28;755;-50
2021/03/04 02:36:01;;;;;;;;;;;12.60;68.70;;;;;;2089578;28;733;-50
2021/03/04 02:37:21;;;;;;;;;;;12.60;68.70;;;;;;2090011;28;787;-50
2021/03/04 02:38:40;;;;;;;;;;;12.60;68.70;;;;;;2081673;28;854;-52
2021/03/04 02:39:59;;;;;;;;;;;12.60;69.40;;;;;;2078075;28;1972;-52
2021/03/04 02:41:18;;;;;;;;;;;12.60;68.60;;;;;;2086745;28;863;-50
2021/03/04 02:42:40;;;;;;;;;;;12.60;68.60;;;;;;2081544;28;1408;-50
2021/03/04 02:44:03;;;;;;;;;;;12.60;69.50;;;;;;2075792;28;796;-50
2021/03/04 02:45:23;;;;;;;;;;;12.60;68.70;;;;;;2086561;28;825;-51
2021/03/04 02:46:42;;;;;;;;;;;12.60;68.70;;;;;;2089532;28;762;-52
2021/03/04 02:48:02;;;;;;;;;;;12.60;68.50;;;;;;2086183;28;740;-52
2021/03/04 02:49:21;;;;;;;;;;;12.60;68.80;;;;;;2092833;28;1233;-52
2021/03/04 02:50:40;;;;;;;;;;;12.70;69.80;;;;;;2081035;28;905;-52
2021/03/04 02:52:00;;;;;;;;;;;12.70;69.60;;;;;;2094453;28;790;-51
2021/03/04 02:53:19;;;;;;;;;;;12.70;69.50;;;;;;2091596;28;1272;-51
2021/03/04 02:54:38;;;;;;;;;;;12.80;68.50;;;;;;2098157;28;730;-52
2021/03/04 02:55:57;;;;;;;;;;;12.80;68.10;;;;;;2098039;28;716;-52
2021/03/04 02:57:17;;;;;;;;;;;12.90;67.70;;;;;;2081182;28;809;-51
2021/03/04 02:58:36;;;;;;;;;;;12.90;67.40;;;;;;2088136;28;771;-51
2021/03/04 02:59:55;;;;;;;;;;;13.00;67.10;;;;;;2085998;28;1906;-51
2021/03/04 03:01:15;;;;;;;;;;;13.10;66.70;;;;;;2094595;28;715;-52
2021/03/04 03:02:34;;;;;;;;;;;13.10;66.10;;;;;;2098184;28;1433;-52
2021/03/04 03:03:53;;;;;;;;;;;13.20;66.00;;;;;;2097601;28;724;-51
2021/03/04 03:05:13;;;;;;;;;;;13.30;65.30;;;;;;2097461;28;728;-51
2021/03/04 03:06:32;;;;;;;;;;;13.30;65.00;;;;;;2092615;28;1109;-51
2021/03/04 03:07:51;;;;;;;;;;;13.30;65.50;;;;;;2088815;28;1395;-51
2021/03/04 03:09:10;;;;;;;;;;;13.30;65.20;;;;;;2088915;28;1255;-51
2021/03/04 03:10:30;;;;;;;;;;;13.30;64.30;;;;;;2089443;28;1198;-50
2021/03/04 03:11:49;;;;;;;;;;;13.40;64.20;;;;;;2087900;28;1313;-51
2021/03/04 03:13:08;;;;;;;;;;;13.40;64.20;;;;;;2079653;28;1423;-52
2021/03/04 03:14:28;;;;;;;;;;;13.40;64.10;;;;;;2088788;28;1282;-51
2021/03/04 03:15:49;;;;;;;;;;;13.40;64.10;;;;;;2080544;28;1040;-51
2021/03/04 03:17:08;;;;;;;;;;;13.40;64.10;;;;;;2081381;28;1391;-52
2021/03/04 03:18:28;;;;;;;;;;;13.40;64.20;;;;;;2084106;28;1219;-50
2021/03/04 03:19:47;;;;;;;;;;;13.30;64.10;;;;;;2085989;28;1906;-50
2021/03/04 03:21:06;;;;;;;;;;;13.30;64.20;;;;;;2090491;28;1418;-49
2021/03/04 03:22:46;;;;;;;;;;;13.30;64.20;;;;;;2089993;28;1487;-52
2021/03/04 03:24:05;;;;;;;;;;;13.30;64.20;;;;;;2084369;28;2099;-50
2021/03/04 03:25:24;;;;;;;;;;;13.30;64.30;;;;;;2094366;28;1300;-50
2021/03/04 03:26:44;;;;;;;;;;;13.30;64.40;;;;;;2089368;28;1687;-51
2021/03/04 03:28:03;;;;;;;;;;;13.30;64.60;;;;;;2094850;28;1290;-50
2021/03/04 03:29:22;;;;;;;;;;;13.30;64.60;;;;;;2092351;28;1169;-51
2021/03/04 03:30:42;;;;;;;;;;;13.30;64.60;;;;;;2097177;28;1057;-51
2021/03/04 03:32:01;;;;;;;;;;;13.40;64.50;;;;;;2091574;28;1298;-49
2021/03/04 03:33:20;;;;;;;;;;;13.40;64.50;;;;;;2089620;28;1256;-50
2021/03/04 03:34:39;;;;;;;;;;;13.40;64.40;;;;;;2089876;28;1180;-51
2021/03/04 03:35:58;;;;;;;;;;;13.50;64.30;;;;;;2072980;28;1332;-50
2021/03/04 03:37:18;;;;;;;;;;;13.50;64.70;;;;;;2086387;28;1296;-51
2021/03/04 03:38:37;;;;;;;;;;;13.50;63.80;;;;;;2089066;28;1411;-52
2021/03/04 03:39:56;;;;;;;;;;;13.60;63.50;;;;;;2090247;28;1965;-51
2021/03/04 03:41:18;;;;;;;;;;;13.60;63.10;;;;;;2077797;28;1388;-52
2021/03/04 03:42:38;;;;;;;;;;;13.70;62.90;;;;;;2085398;28;1414;-53
2021/03/04 03:43:57;;;;;;;;;;;13.70;62.60;;;;;;2087927;28;1172;-51
2021/03/04 03:45:18;;;;;;;;;;;13.80;62.40;;;;;;2082902;28;2034;-52
2021/03/04 03:46:37;;;;;;;;;;;13.90;62.00;;;;;;2086026;28;1238;-51
2021/03/04 03:47:56;;;;;;;;;;;13.90;61.70;;;;;;2087331;28;1477;-51
2021/03/04 03:49:15;;;;;;;;;;;14.00;61.40;;;;;;2089076;28;1346;-53
2021/03/04 03:50:35;;;;;;;;;;;14.00;61.10;;;;;;2089341;28;1348;-52
2021/03/04 03:51:55;;;;;;;;;;;14.10;60.80;;;;;;2086969;28;1132;-50
2021/03/04 03:53:14;;;;;;;;;;;14.10;60.50;;;;;;2086565;28;1331;-53
2021/03/04 03:54:34;;;;;;;;;;;14.20;60.20;;;;;;2085475;28;1194;-49
2021/03/04 03:55:54;;;;;;;;;;;14.20;59.90;;;;;;2084245;28;1212;-51
2021/03/04 03:57:13;;;;;;;;;;;14.30;59.80;;;;;;2083699;28;1175;-50
2021/03/04 03:58:32;;;;;;;;;;;14.30;59.60;;;;;;2076469;28;1419;-50
2021/03/04 03:59:51;;;;;;;;;;;14.40;59.60;;;;;;2087023;28;1975;-50
2021/03/04 04:01:10;;;;;;;;;;;14.50;59.50;;;;;;2091116;28;1294;-51
2021/03/04 04:02:30;;;;;;;;;;;14.50;59.30;;;;;;2081021;28;1365;-52
2021/03/04 04:03:49;;;;;;;;;;;14.60;59.20;;;;;;2074010;28;1225;-50
2021/03/04 04:05:08;;;;;;;;;;;14.60;59.00;;;;;;2087034;28;1280;-51
2021/03/04 04:06:27;;;;;;;;;;;14.60;58.80;;;;;;2088836;28;1316;-51
2021/03/04 04:07:46;;;;;;;;;;;14.60;59.30;;;;;;2086827;28;1235;-50
2021/03/04 04:09:05;;;;;;;;;;;14.70;58.70;;;;;;2087472;28;1548;-50
2021/03/04 04:10:25;;;;;;;;;;;14.70;58.70;;;;;;2085604;28;1348;-50
2021/03/04 04:11:44;;;;;;;;;;;14.70;58.60;;;;;;2090204;28;1365;-52
2021/03/04 04:13:04;;;;;;;;;;;14.70;58.80;;;;;;2090431;28;1521;-51
2021/03/04 04:14:23;;;;;;;;;;;14.70;58.80;;;;;;2089415;28;1332;-51
2021/03/04 04:15:42;;;;;;;;;;;14.70;58.80;;;;;;2084332;28;1817;-52
2021/03/04 04:17:02;;;;;;;;;;;14.70;58.90;;;;;;2086949;28;1397;-51
2021/03/04 04:18:22;;;;;;;;;;;14.70;59.00;;;;;;2087535;28;1432;-50
2021/03/04 04:19:41;;;;;;;;;;;14.60;59.00;;;;;;2087203;28;1898;-51
2021/03/04 04:21:00;;;;;;;;;;;14.60;59.10;;;;;;2076478;28;1392;-51
2021/03/04 04:22:19;;;;;;;;;;;14.60;59.20;;;;;;2084006;28;1502;-52
2021/03/04 04:23:39;;;;;;;;;;;14.60;59.30;;;;;;2083666;28;1251;-50
2021/03/04 04:24:58;;;;;;;;;;;14.60;60.00;;;;;;2084216;28;1234;-50
2021/03/04 04:26:18;;;;;;;;;;;14.60;59.60;;;;;;2086812;28;1344;-50
2021/03/04 04:27:37;;;;;;;;;;;14.50;59.60;;;;;;2087649;28;1272;-48
2021/03/04 04:28:56;;;;;;;;;;;14.50;59.80;;;;;;2089328;28;1465;-49
2021/03/04 04:30:16;;;;;;;;;;;14.50;60.20;;;;;;2092198;28;1460;-51
2021/03/04 04:31:35;;;;;;;;;;;14.50;60.70;;;;;;2087832;28;1302;-49
2021/03/04 04:32:55;;;;;;;;;;;14.50;61.30;;;;;;2091525;28;1408;-50
2021/03/04 04:34:14;;;;;;;;;;;14.50;61.50;;;;;;2094119;28;1259;-50
2021/03/04 04:35:33;;;;;;;;;;;14.50;61.50;;;;;;2090782;28;1382;-50
2021/03/04 04:36:52;;;;;;;;;;;14.50;61.60;;;;;;2089238;28;1521;-49
2021/03/04 04:38:11;;;;;;;;;;;14.40;61.60;;;;;;2088657;28;1395;-49
2021/03/04 04:39:30;;;;;;;;;;;14.40;61.80;;;;;;2087783;28;1325;-52
2021/03/04 04:40:50;;;;;;;;;;;14.40;62.00;;;;;;2089348;28;1328;-50
2021/03/04 04:42:09;;;;;;;;;;;14.40;62.90;;;;;;2087955;28;1235;-51
2021/03/04 04:43:29;;;;;;;;;;;14.30;62.20;;;;;;2088274;28;1362;-49
2021/03/04 04:44:48;;;;;;;;;;;14.30;62.30;;;;;;2088661;28;1535;-51
2021/03/04 04:46:07;;;;;;;;;;;14.30;62.50;;;;;;2088817;28;1380;-52
2021/03/04 04:47:26;;;;;;;;;;;14.30;62.60;;;;;;2088572;28;1298;-50
2021/03/04 04:48:46;;;;;;;;;;;14.20;62.60;;;;;;2089554;28;1393;-52
2021/03/04 04:50:05;;;;;;;;;;;14.30;62.90;;;;;;2088534;28;1272;-52
2021/03/04 04:51:24;;;;;;;;;;;14.20;63.00;;;;;;2088917;28;1216;-51
2021/03/04 04:52:44;;;;;;;;;;;14.20;63.00;;;;;;2088353;28;1435;-52
2021/03/04 04:54:03;;;;;;;;;;;14.20;63.10;;;;;;2080111;28;1293;-50
2021/03/04 04:55:22;;;;;;;;;;;14.20;63.30;;;;;;2084422;28;1235;-50
2021/03/04 04:56:41;;;;;;;;;;;14.10;63.30;;;;;;2086079;28;1164;-49
2021/03/04 04:58:01;;;;;;;;;;;14.10;63.40;;;;;;2089822;28;1446;-51
2021/03/04 04:59:21;;;;;;;;;;;14.10;64.30;;;;;;2089088;28;1194;-50
2021/03/04 05:00:40;;;;;;;;;;;14.10;63.60;;;;;;2090226;28;1310;-50
2021/03/04 05:01:59;;;;;;;;;;;14.10;63.70;;;;;;2087555;28;1329;-52
2021/03/04 05:03:18;;;;;;;;;;;14.10;63.80;;;;;;2089171;28;1445;-52
2021/03/04 05:04:38;;;;;;;;;;;14.10;63.90;;;;;;2085768;28;1426;-50
2021/03/04 05:05:57;;;;;;;;;;;14.00;63.90;;;;;;2090396;28;1386;-52
2021/03/04 05:07:16;;;;;;;;;;;14.00;64.00;;;;;;2089022;28;1229;-51
2021/03/04 05:08:36;;;;;;;;;;;14.00;64.10;;;;;;2089258;28;1151;-51
2021/03/04 05:09:55;;;;;;;;;;;14.00;64.20;;;;;;2087747;28;1192;-52
2021/03/04 05:11:17;;;;;;;;;;;14.00;64.20;;;;;;2088814;28;1316;-51
2021/03/04 05:12:36;;;;;;;;;;;14.00;64.40;;;;;;2089948;28;1436;-50
2021/03/04 05:13:56;;;;;;;;;;;14.00;65.20;;;;;;2089827;28;1259;-52
2021/03/04 05:15:15;;;;;;;;;;;13.90;64.30;;;;;;2086637;28;1439;-50
2021/03/04 05:16:34;;;;;;;;;;;13.90;64.50;;;;;;2091211;28;1398;-51
2021/03/04 05:17:54;;;;;;;;;;;13.90;64.50;;;;;;2080943;28;1346;-51
2021/03/04 05:19:13;;;;;;;;;;;13.90;64.60;;;;;;2085683;28;1727;-48
2021/03/04 05:20:32;;;;;;;;;;;13.90;64.70;;;;;;2089345;28;1910;-51
2021/03/04 05:21:52;;;;;;;;;;;13.90;64.80;;;;;;2092930;28;1275;-49
2021/03/04 05:23:11;;;;;;;;;;;13.90;64.90;;;;;;2091429;28;1430;-52
2021/03/04 05:24:30;;;;;;;;;;;13.80;64.80;;;;;;2090157;28;1297;-52
2021/03/04 05:25:49;;;;;;;;;;;13.90;65.10;;;;;;2087847;28;1175;-52
2021/03/04 05:27:08;;;;;;;;;;;13.80;65.00;;;;;;2091241;28;1370;-52
2021/03/04 05:28:27;;;;;;;;;;;13.80;65.10;;;;;;2083511;28;1212;-52
2021/03/04 05:29:47;;;;;;;;;;;13.80;65.20;;;;;;2091667;28;1169;-52
2021/03/04 05:31:06;;;;;;;;;;;13.80;65.30;;;;;;2091849;28;1183;-52
2021/03/04 05:32:25;;;;;;;;;;;13.80;65.30;;;;;;2092834;28;1457;-52
2021/03/04 05:33:44;;;;;;;;;;;13.80;65.40;;;;;;2091327;28;1266;-50
2021/03/04 05:35:04;;;;;;;;;;;13.70;65.20;;;;;;2090281;28;1388;-49
2021/03/04 05:36:23;;;;;;;;;;;13.80;65.40;;;;;;2087178;28;1260;-50
2021/03/04 05:37:42;;;;;;;;;;;13.80;65.50;;;;;;2091750;28;1173;-51
2021/03/04 05:39:02;;;;;;;;;;;13.70;65.40;;;;;;2090487;28;1294;-52
2021/03/04 05:40:21;;;;;;;;;;;13.70;65.60;;;;;;2091463;28;1975;-51
2021/03/04 05:41:41;;;;;;;;;;;13.70;65.60;;;;;;2088113;28;1417;-51
2021/03/04 05:43:00;;;;;;;;;;;13.70;65.60;;;;;;2090579;28;1404;-51
2021/03/04 05:44:19;;;;;;;;;;;13.70;65.70;;;;;;2092511;28;1210;-52
2021/03/04 05:45:38;;;;;;;;;;;13.70;65.70;;;;;;2081750;28;1242;-51
2021/03/04 05:46:57;;;;;;;;;;;13.70;65.80;;;;;;2087167;28;1168;-52
2021/03/04 05:48:20;;;;;;;;;;;13.70;66.60;;;;;;2092608;28;1266;-52
2021/03/04 05:49:50;;;;;;;;;;;13.70;66.60;;;;;;2091287;28;1283;-51
2021/03/04 05:51:08;;;;;;;;;;;13.60;66.00;;;;;;2091250;28;1421;-52
2021/03/04 05:52:28;;;;;;;;;;;13.60;66.70;;;;;;2091198;28;1433;-51
2021/03/04 05:53:47;;;;;;;;;;;13.60;66.00;;;;;;2094361;28;1048;-50
2021/03/04 05:55:07;;;;;;;;;;;13.60;66.20;;;;;;2094667;28;1419;-52
2021/03/04 05:56:26;;;;;;;;;;;13.60;67.00;;;;;;2096888;28;1167;-53
2021/03/04 05:57:45;;;;;;;;;;;13.60;67.50;;;;;;2097064;28;1271;-52
2021/03/04 05:59:05;;;;;;;;;;;13.70;67.80;;;;;;2085786;28;1291;-52
2021/03/04 06:00:24;;;;;;;;;;;13.70;67.60;;;;;;2080019;28;1903;-52
2021/03/04 06:01:43;;;;;;;;;;;13.60;67.90;;;;;;2089292;28;1326;-51
2021/03/04 06:03:05;;;;;;;;;;;13.60;67.90;;;;;;2091674;28;1477;-51
2021/03/04 06:04:25;;;;;;;;;;;13.60;67.80;;;;;;2092279;28;1261;-54
2021/03/04 06:05:46;;;;;;;;;;;13.60;68.40;;;;;;2082846;28;1434;-52
2021/03/04 06:07:05;;;;;;;;;;;13.60;67.50;;;;;;2087901;28;1327;-51
2021/03/04 06:08:24;;;;;;;;;;;13.60;67.60;;;;;;2091872;28;1214;-49
2021/03/04 06:09:44;;;;;;;;;;;13.60;67.50;;;;;;2093080;28;1311;-49
2021/03/04 06:11:03;;;;;;;;;;;13.50;67.40;;;;;;2090402;28;1048;-52
2021/03/04 06:12:23;;;;;;;;;;;13.50;67.50;;;;;;2092355;28;1436;-51
2021/03/04 06:13:42;;;;;;;;;;;13.50;67.50;;;;;;2091730;28;1362;-51
2021/03/04 06:15:01;;;;;;;;;;;13.50;67.60;;;;;;2080654;28;1364;-57
2021/03/04 06:16:20;;;;;;;;;;;13.50;67.60;;;;;;2088504;28;1247;-60
2021/03/04 06:17:51;;;;;;;;;;;13.50;67.70;;;;;;2092402;28;1421;-56
2021/03/04 06:19:19;;;;;;;;;;;13.50;67.80;;;;;;2094326;28;1291;-56
2021/03/04 06:20:39;;;;;;;;;;;13.40;67.80;;;;;;2090824;28;1910;-52
2021/03/04 06:21:58;;;;;;;;;;;13.50;67.90;;;;;;2094963;28;1185;-49
2021/03/04 06:23:17;;;;;;;;;;;13.50;67.90;;;;;;2090244;28;1163;-51
2021/03/04 06:24:37;;;;;;;;;;;13.40;67.90;;;;;;2081091;28;1218;-51
2021/03/04 06:25:56;;;;;;;;;;;13.40;67.80;;;;;;2082914;28;1402;-50
2021/03/04 06:27:22;;;;;;;;;;;13.40;67.90;;;;;;2090101;28;1294;-50
2021/03/04 06:28:42;;;;;;;;;;;13.40;67.90;;;;;;2091988;28;1174;-50
2021/03/04 06:30:08;;;;;;;;;;;13.40;67.90;;;;;;2092649;28;1296;-49
2021/03/04 06:31:27;;;;;;;;;;;13.40;67.90;;;;;;2089887;28;1221;-51
2021/03/04 06:32:53;;;;;;;;;;;13.40;67.90;;;;;;2090695;28;1518;-50
2021/03/04 06:34:16;;;;;;;;;;;13.40;67.90;;;;;;2091162;28;1262;-51
2021/03/04 06:35:39;;;;;;;;;;;13.40;68.00;;;;;;2089086;28;1164;-51
2021/03/04 06:37:02;;;;;;;;;;;13.40;68.00;;;;;;2090874;28;1378;-50
2021/03/04 06:38:22;;;;;;;;;;;13.40;68.00;;;;;;2089051;28;1239;-50
2021/03/04 06:39:45;;;;;;;;;;;13.40;68.10;;;;;;2084996;28;1975;-50
2021/03/04 06:41:05;;;;;;;;;;;13.40;68.10;;;;;;2090147;28;1172;-51
2021/03/04 06:42:24;;;;;;;;;;;13.40;68.20;;;;;;2089697;28;1421;-52
2021/03/04 06:43:43;;;;;;;;;;;13.40;68.20;;;;;;2085312;28;1384;-52
2021/03/04 06:45:02;;;;;;;;;;;13.30;68.10;;;;;;2091403;28;1180;-51
2021/03/04 06:46:21;;;;;;;;;;;13.30;68.10;;;;;;2089803;28;1300;-50
2021/03/04 06:47:40;;;;;;;;;;;13.30;68.90;;;;;;2090517;28;1233;-50
2021/03/04 06:49:00;;;;;;;;;;;13.30;68.10;;;;;;2089109;28;1167;-49
2021/03/04 06:50:23;;;;;;;;;;;13.30;68.10;;;;;;2089724;28;1210;-52
2021/03/04 06:51:42;;;;;;;;;;;13.30;68.10;;;;;;2091042;28;1374;-52
2021/03/04 06:53:11;;;;;;;;;;;13.30;68.20;;;;;;2091145;28;1497;-51
2021/03/04 06:54:31;;;;;;;;;;;13.30;68.20;;;;;;2089867;28;1272;-51
2021/03/04 06:55:51;;;;;;;;;;;13.30;68.30;;;;;;2090473;28;1168;-49
2021/03/04 06:57:13;;;;;;;;;;;13.30;68.40;;;;;;2091377;28;1261;-49
2021/03/04 06:58:35;;;;;;;;;;;13.30;68.40;;;;;;2088504;28;1311;-50
2021/03/04 06:59:54;;;;;;;;;;;13.30;68.40;;;;;;2089577;28;1894;-49
2021/03/04 07:01:14;;;;;;;;;;;13.30;68.40;;;;;;2088715;28;1277;-50
2021/03/04 07:02:33;;;;;;;;;;;13.20;68.30;;;;;;2090465;28;1401;-51
2021/03/04 07:03:53;;;;;;;;;;;13.20;68.40;;;;;;2088815;28;1230;-50
2021/03/04 07:05:12;;;;;;;;;;;13.30;68.60;;;;;;2091485;28;1141;-51
2021/03/04 07:06:33;;;;;;;;;;;13.20;68.40;;;;;;2088846;28;1243;-50
2021/03/04 07:07:55;;;;;;;;;;;13.20;68.40;;;;;;2085181;28;1271;-50
2021/03/04 07:09:15;;;;;;;;;;;13.20;68.50;;;;;;2089086;28;1410;-51
2021/03/04 07:10:34;;;;;;;;;;;13.20;68.50;;;;;;2085323;28;1226;-52
2021/03/04 07:11:53;;;;;;;;;;;13.20;69.20;;;;;;2094574;28;1079;-48
2021/03/04 07:13:12;;;;;;;;;;;13.20;68.50;;;;;;2080236;28;1442;-52
2021/03/04 07:14:31;;;;;;;;;;;13.10;68.40;;;;;;2080459;28;1329;-50
2021/03/04 07:15:51;;;;;;;;;;;13.20;68.50;;;;;;2088091;28;1308;-51
2021/03/04 07:17:10;;;;;;;;;;;13.10;68.50;;;;;;2088521;28;1608;-51
2021/03/04 07:18:30;;;;;;;;;;;13.20;68.60;;;;;;2097092;28;1284;-50
2021/03/04 07:19:50;;;;;;;;;;;13.10;68.50;;;;;;2091661;28;1887;-49
2021/03/04 07:21:10;;;;;;;;;;;13.10;68.60;;;;;;2089104;28;1156;-50
2021/03/04 07:22:29;;;;;;;;;;;13.10;68.60;;;;;;2089292;28;1506;-52
2021/03/04 07:23:48;;;;;;;;;;;13.10;68.70;;;;;;2090359;28;1169;-52
2021/03/04 07:25:08;;;;;;;;;;;13.10;68.70;;;;;;2088557;28;1174;-51
2021/03/04 07:26:27;;;;;;;;;;;13.10;69.50;;;;;;2080824;28;1335;-51
2021/03/04 07:27:46;;;;;;;;;;;13.10;68.80;;;;;;2079962;28;1374;-51
2021/03/04 07:29:07;;;;;;;;;;;13.10;68.80;;;;;;2083733;28;1359;-49
2021/03/04 07:30:26;;;;;;;;;;;13.10;68.90;;;;;;2089020;28;1290;-51
2021/03/04 07:31:46;;;;;;;;;;;13.10;68.80;;;;;;2089015;28;1416;-52
2021/03/04 07:33:06;;;;;;;;;;;13.10;68.90;;;;;;2082609;28;1400;-49
2021/03/04 07:34:25;;;;;;;;;;;13.10;68.80;;;;;;2086151;28;1287;-50
2021/03/04 07:35:46;;;;;;;;;;;13.10;68.80;;;;;;2084897;28;1197;-50
2021/03/04 07:37:05;;;;;;;;;;;13.10;68.80;;;;;;2085516;28;1200;-52
2021/03/04 07:38:25;;;;;;;;;;;13.10;68.80;;;;;;2089487;28;1154;-52
2021/03/04 07:39:47;;;;;;;;;;;13.10;68.90;;;;;;2092696;28;1463;-51
2021/03/04 07:41:12;;;;;;;;;;;13.10;69.60;;;;;;2089168;28;1393;-52
2021/03/04 07:42:32;;;;;;;;;;;13.10;69.00;;;;;;2088113;28;1350;-52
2021/03/04 07:43:57;;;;;;;;;;;13.00;68.80;;;;;;2086022;28;1448;-49
2021/03/04 07:45:18;;;;;;;;;;;13.00;68.80;;;;;;2088587;28;1142;-50
2021/03/04 07:46:44;;;;;;;;;;;13.00;68.80;;;;;;2089281;28;1136;-51
2021/03/04 07:48:07;;;;;;;;;;;13.00;68.80;;;;;;2090146;28;1305;-50
2021/03/04 07:49:39;;;;;;;;;;;13.00;69.70;;;;;;2088516;28;1540;-52
2021/03/04 07:50:58;;;;;;;;;;;13.00;69.00;;;;;;2089425;28;1220;-51
2021/03/04 07:52:18;;;;;;;;;;;13.00;69.00;;;;;;2087665;28;1405;-50
2021/03/04 07:53:40;;;;;;;;;;;13.00;69.00;;;;;;2090945;28;1222;-51
2021/03/04 07:55:07;;;;;;;;;;;13.00;69.00;;;;;;2090683;28;1425;-49